• Join FlightAware (Why Join?)
  • Login
  • US Flag 
08:11AM EST


 

Airport Tracker/Info


-or-


 

Live Flight TrackerFlight Track Log ✈ EMD23 ✈ 17-Jun-2012 ✈ KGRN - KLNK

Flight Track Log - Related Links

Times and Time Zones

All times are in EDT time to prevent confusion due to time zone crossing. See the EMD23 flight status page for this flight to view local times or setup timezone preferences in your user account.

Time Position Orientation Groundspeed Altitude Reporting Facility
EDT Latitude Longitude Course Direction KTS MPH feet Rate Location/Type
07:38PM 42.7678 -101.9886 112° Southeast 193 222 9,300  Level Denver Center
07:39PM 42.7486 -101.9247 115° Southeast 189 217 10,700 1,500 Climbing Denver Center
07:40PM 42.7222 -101.8478 114° Southeast 196 226 12,500 1,680 Climbing Denver Center
07:41PM 42.7000 -101.7797 115° Southeast 206 237 14,200 1,560 Climbing Denver Center
07:42PM 42.6733 -101.7031 112° Southeast 204 235 15,800 1,440 Climbing Denver Center
07:43PM 42.6522 -101.6319 116° Southeast 210 242 17,200 1,560 Climbing Denver Center
07:44PM 42.6233 -101.5503 115° Southeast 213 245 19,100 1,500 Climbing Denver Center
07:45PM 42.5983 -101.4781 116° Southeast 218 251 20,400 1,320 Climbing Denver Center
07:46PM 42.5681 -101.3936 117° Southeast 221 254 21,900 1,200 Climbing Denver Center
07:47PM 42.5411 -101.3211 120° Southeast 223 257 22,900 480 Climbing Denver Center
07:48PM 42.5000 -101.2231 121° Southeast 269 310 23,000  Climbing Denver Center
07:49PM 42.4603 -101.1336 118° Southeast 292 336 23,000  Level Denver Center
07:50PM 42.4158 -101.0192 116° Southeast 303 349 23,000  Level Denver Center
07:51PM 42.3792 -100.9194 116° Southeast 306 352 23,000  Level Denver Center
07:53PM 42.3367 -100.7997 115° Southeast 312 359 23,000  Level Denver Center
07:54PM 42.3014 -100.6986 115° Southeast 312 359 23,000  Level Denver Center
07:55PM 42.2603 -100.5786 116° Southeast 313 360 23,000  Level Denver Center
07:56PM 42.2247 -100.4786 116° Southeast 311 358 23,000  Level Denver Center
07:57PM 42.1828 -100.3619 116° Southeast 310 357 23,000  Level Denver Center
07:58PM 42.1464 -100.2594 115° Southeast 313 360 23,000  Level Denver Center
07:59PM 42.1047 -100.1414 115° Southeast 313 360 23,000  Level Denver Center
08:00PM 42.0700 -100.0425 115° Southeast 309 356 23,000  Level Denver Center
08:01PM 42.0294 -99.9250 115° Southeast 308 354 23,000  Level Denver Center
08:02PM 41.9939 -99.8225 115° Southeast 312 359 23,000  Level Denver Center
08:03PM 41.9528 -99.7061 115° Southeast 314 361 23,000  Level Denver Center
08:04PM 41.9164 -99.6000 115° Southeast 313 360 23,000  Level Denver Center
08:05PM 41.8794 -99.4939 116° Southeast 313 360 23,000  Level Denver Center
08:06PM 41.8353 -99.3706 116° Southeast 308 354 23,000  Level Denver Center
08:07PM 41.7978 -99.2686 117° Southeast 306 352 23,000  Level Denver Center
08:08PM 41.7592 -99.1664 117° Southeast 305 351 23,000  Level Denver Center
08:09PM 41.7208 -99.0650 117° Southeast 306 352 23,000  Level Denver Center
08:10PM 41.6817 -98.9614 116° Southeast 308 354 23,000 -60 Level Denver Center
08:11PM 41.6431 -98.8561 117° Southeast 312 359 22,900 -600 Descending Denver Center
08:12PM 41.5931 -98.7272 115° Southeast 320 368 21,800 -720 Descending Denver Center
08:13PM 41.5544 -98.6167 115° Southeast 325 374 21,400 -540 Descending Denver Center
08:14PM 41.5303 -98.5486 116° Southeast 324 373 20,900 -900 Descending Minneapolis Center
08:15PM 41.4844 -98.4217 120° Southeast 324 373 19,900 -840 Descending Minneapolis Center
08:16PM 41.4386 -98.3178 117° Southeast 323 372 19,200 -480 Descending Minneapolis Center
08:17PM 41.3981 -98.2133 119° Southeast 320 368 19,000 -300 Descending Minneapolis Center
08:18PM 41.3567 -98.1125 119° Southeast 314 361 18,600 -420 Descending Minneapolis Center
08:19PM 41.3158 -98.0128 117° Southeast 310 357 18,200 -720 Descending Minneapolis Center
08:20PM 41.2767 -97.9092 117° Southeast 311 358 17,200 -1,020 Descending Minneapolis Center
08:21PM 41.2375 -97.8050 116° Southeast 313 360 16,200 -1,140 Descending Minneapolis Center
08:22PM 41.1967 -97.6958 116° Southeast 320 368 14,900 -1,380 Descending Minneapolis Center
08:23PM 41.1492 -97.5647 114° Southeast 326 375 13,400 -1,380 Descending Minneapolis Center
08:24PM 41.1122 -97.4569 133° Southeast 325 374 12,100 -1,500 Descending Minneapolis Center
08:25PM 41.0756 -97.4039 88° East 319 367 11,100 -1,860 Descending Minneapolis Center
08:25PM 41.0772 -97.3525 113° Southeast 319 367 10,200 -1,680 Descending Minneapolis Center
08:26PM 41.0442 -97.2481 111° Southeast 313 360 8,500 -1,620 Descending Minneapolis Center
08:28PM 41.0156 -97.1492 124° Southeast 299 344 6,900 -1,560 Descending Minneapolis Center
08:28PM 40.9831 -97.0842 74° East 286 329 6,100 -1,260 Descending Minneapolis Center
08:29PM 40.9900 -97.0519 123° Southeast 288 331 5,600 -1,200 Descending Minneapolis Center
08:29PM 40.9586 -96.9872 114° Southeast 257 296 4,800 -1,380 Descending Minneapolis Center
08:30PM 40.9283 -96.8967 116° Southeast 244 281 3,400 -1,140 Descending Minneapolis Center
08:31PM 40.9086 -96.8433 100° East 236 272 2,900 -540 Descending Minneapolis Center
08:32PM 40.9028 -96.7992 120° Southeast 234 269 2,600 -660 Descending Minneapolis Center
08:33PM 40.8825 -96.7536 163° South 184 212 1,800 -540 Descending Minneapolis Center
08:34PM 40.8517 -96.7414 163° South 171 197 1,600 -240 Descending Minneapolis Center